Bancroft, WI (54921)

12:15 AM CST on December 06, 2016 (GMT -0600)
NWS Station PLOW3, Tim Bubla | | Change Station

Elev 1070 ft 44.44 °N, 89.55 °W | Updated 9 seconds ago

Scattered Clouds
Scattered Clouds
31.8 °F
Feels Like 26 °F
N
5.8
Wind Variable Wind from SW
Gusts 5.8 mph

Today
High -- | Low -- °F
--% Chance of Precip.
Yesterday
High -- | Low -- °F
Precip. -- in
Pressure 29.82 in
Visibility 5.0 miles
Clouds Scattered Clouds 400 ft
Windchill 26 °F
Dew Point 32 °F
Humidity 100%
Rainfall 0.00 in
Snow Depth Not available.
7:19 AM 4:18 PM
Waxing Crescent, 38% visible
METAR KSTE 060555Z AUTO 15005KT 5SM BR SCT004 M01/M01 A2982 RMK AO2 T10121012 11003 21012 400001013
Pressure 29.82 in
Visibility 5.0 miles
Clouds Scattered Clouds 400 ft
Windchill 26 °F
Dew Point 32 °F
Humidity 100%
Rainfall 0.00 in
Snow Depth Not available.
7:19 AM 4:18 PM
Waxing Crescent, 38% visible
METAR KSTE 060555Z AUTO 15005KT 5SM BR SCT004 M01/M01 A2982 RMK AO2 T10121012 11003 21012 400001013

10-Day Weather Forecast

Almanac

Astronomy

Dec. 06, 2016 Rise Set
Actual Time
Civil Twilight
Nautical Twilight
Astronomical Twilight
Moon
Length of Visible Light
Length of Day
Tomorrow will be .
, % of the Moon is Illuminated

Today's Extremes

State Highs State Lows

Community

WunderPhotos

Upload Photos

1,955,932 photos uploaded!

WunderBlog® & News

Nearby

Air Quality

  Air Quality AQ Index Pollutant
Not available.

Snow Depth

Station Depth Elevation

Earthquake Activity

City Distance Mag. Time & Date
Minimum magnitude displayed is 2.5.

Coastal Water Temperatures

Place Temperature

Stations

Nearby Weather Stations

Station Location Temp. Windchill Dew Point Humidity Wind Precip. Elev Updated Type
                   

Watches & Warnings

There are currently no watches in effect.